Time;durP1;ratioP1;P1;durP2;ratioP2;P2;SDS_P1;SDS_P2;PMS_P1;PMS_P2;Temp;Humidity;BMP_temperature;BMP_pressure;BME280_temperature;BME280_humidity;BME280_pressure;Samples;Min_cycle;Max_cycle;Signal;HPM_P1;HPM_P2
2021/09/16 00:01:37;;;;;;;20.80;17.20;;;;;;;15.18;79.95;100312.55;93801;1196;98791;-74
2021/09/16 00:03:41;;;;;;;22.90;18.40;;;;;;;15.21;79.91;100314.39;93810;1196;87560;-62
2021/09/16 00:05:45;;;;;;;27.20;18.70;;;;;;;15.22;79.91;100309.63;93737;1196;92460;-63
2021/09/16 00:07:49;;;;;;;22.10;18.10;;;;;;;15.22;79.79;100306.66;93696;1196;81089;-63
2021/09/16 00:09:53;;;;;;;24.30;19.10;;;;;;;15.26;79.84;100305.54;93764;1196;80587;-63
2021/09/16 00:11:59;;;;;;;23.10;18.40;;;;;;;15.31;79.80;100304.74;93792;1196;97245;-62
2021/09/16 00:14:04;;;;;;;24.80;18.80;;;;;;;15.34;79.75;100304.21;93809;1196;87856;-75
2021/09/16 00:16:08;;;;;;;25.80;19.60;;;;;;;15.34;79.63;100306.52;93769;1196;94159;-75
2021/09/16 00:18:12;;;;;;;24.40;18.10;;;;;;;15.36;79.64;100304.61;93759;1196;80543;-75
2021/09/16 00:20:17;;;;;;;24.10;18.60;;;;;;;15.40;79.55;100302.54;93810;1196;81191;-63
2021/09/16 00:22:21;;;;;;;22.10;17.60;;;;;;;15.43;79.51;100302.80;93790;1196;97663;-63
2021/09/16 00:24:25;;;;;;;23.10;17.50;;;;;;;15.45;79.42;100298.85;93781;1189;86834;-62
2021/09/16 00:26:29;;;;;;;24.40;18.00;;;;;;;15.47;79.33;100296.00;93748;1196;94085;-63
2021/09/16 00:28:33;;;;;;;26.70;18.10;;;;;;;15.49;79.29;100289.38;93766;1196;81567;-63
2021/09/16 00:30:37;;;;;;;21.00;17.20;;;;;;;15.51;79.23;100290.57;93757;1196;81350;-62
2021/09/16 00:32:42;;;;;;;21.10;18.50;;;;;;;15.53;79.13;100287.95;93786;1196;98050;-64
2021/09/16 00:34:46;;;;;;;21.60;17.70;;;;;;;15.54;79.12;100292.51;93793;1189;86826;-76
2021/09/16 00:36:53;;;;;;;22.10;17.00;;;;;;;15.55;79.12;100288.18;93749;1196;92992;-76
2021/09/16 00:39:00;;;;;;;19.90;16.30;;;;;;;15.56;78.94;100284.36;93761;1196;81152;-75
2021/09/16 00:41:08;;;;;;;21.20;17.60;;;;;;;15.57;78.97;100282.89;93773;1196;81473;-78
2021/09/16 00:43:12;;;;;;;20.50;16.70;;;;;;;15.60;78.89;100284.91;93785;1196;98620;-74
2021/09/16 00:45:16;;;;;;;24.00;17.10;;;;;;;15.62;78.93;100280.81;93779;1196;86590;-62
2021/09/16 00:47:21;;;;;;;23.60;16.60;;;;;;;15.64;78.80;100276.27;93801;1195;92821;-64
2021/09/16 00:49:25;;;;;;;21.60;16.50;;;;;;;15.65;78.75;100276.73;93806;1196;81582;-77
2021/09/16 00:51:30;;;;;;;19.10;16.60;;;;;;;15.65;78.62;100271.96;93798;1196;82196;-77
2021/09/16 00:53:35;;;;;;;19.60;16.50;;;;;;;15.67;78.58;100272.35;93808;1196;96456;-80
2021/09/16 00:55:39;;;;;;;17.80;15.90;;;;;;;15.68;78.56;100274.02;93802;1196;87778;-75
2021/09/16 00:57:52;;;;;;;20.20;15.90;;;;;;;15.68;78.51;100272.93;93705;1196;94535;-75
2021/09/16 01:00:00;;;;;;;20.50;15.40;;;;;;;15.69;78.51;100272.02;93756;1196;80429;-76
2021/09/16 01:02:07;;;;;;;21.10;17.10;;;;;;;15.68;78.48;100274.52;93802;1196;80828;-76
2021/09/16 01:04:14;;;;;;;21.00;16.60;;;;;;;15.65;78.44;100273.70;93799;1196;98418;-76
2021/09/16 01:06:18;;;;;;;20.60;16.60;;;;;;;15.56;78.54;100268.65;93721;1196;86492;-75
2021/09/16 01:08:23;;;;;;;21.70;16.30;;;;;;;15.51;78.49;100265.73;93748;1196;92970;-74
2021/09/16 01:10:28;;;;;;;19.50;16.20;;;;;;;15.44;78.51;100258.10;93776;1196;80611;-77
2021/09/16 01:12:32;;;;;;;19.10;16.50;;;;;;;15.44;78.59;100254.45;93756;1196;81264;-75
2021/09/16 01:14:37;;;;;;;19.50;16.80;;;;;;;15.41;78.57;100255.28;93795;1196;97166;-75
2021/09/16 01:16:41;;;;;;;19.20;16.50;;;;;;;15.38;78.61;100255.60;93816;1196;86726;-75
2021/09/16 01:18:45;;;;;;;21.80;17.30;;;;;;;15.38;78.70;100257.69;93800;1196;91965;-63
2021/09/16 01:20:54;;;;;;;19.30;16.50;;;;;;;15.39;78.67;100254.92;93809;1196;80402;-64
2021/09/16 01:22:58;;;;;;;22.50;17.50;;;;;;;15.40;78.67;100260.40;93835;1196;81788;-63
2021/09/16 01:25:03;;;;;;;22.30;17.90;;;;;;;15.36;78.71;100258.05;93795;1196;97229;-63
2021/09/16 01:27:07;;;;;;;22.00;17.30;;;;;;;15.35;78.65;100261.93;93809;1196;87222;-62
2021/09/16 01:29:12;;;;;;;20.50;16.70;;;;;;;15.35;78.69;100259.94;93759;1196;92799;-75
2021/09/16 01:31:31;;;;;;;20.50;17.00;;;;;;;15.32;78.66;100254.48;93850;1196;80447;-76
2021/09/16 01:33:36;;;;;;;20.40;16.50;;;;;;;15.28;78.71;100254.14;93767;1196;82667;-63
2021/09/16 01:35:40;;;;;;;21.60;16.10;;;;;;;15.28;78.74;100254.31;93835;1196;97631;-64
2021/09/16 01:37:44;;;;;;;20.80;16.20;;;;;;;15.19;78.73;100250.09;93815;1196;87533;-64
2021/09/16 01:39:49;;;;;;;18.40;15.50;;;;;;;15.07;78.84;100250.60;93735;1196;94470;-64
2021/09/16 01:41:54;;;;;;;19.70;16.20;;;;;;;14.97;78.95;100247.55;93750;1196;80094;-64
2021/09/16 01:43:58;;;;;;;20.30;15.80;;;;;;;14.88;79.05;100246.56;93847;1189;81317;-76
2021/09/16 01:46:02;;;;;;;20.60;16.10;;;;;;;14.85;79.15;100246.21;93787;1196;99913;-75
2021/09/16 01:48:06;;;;;;;20.50;16.70;;;;;;;14.77;79.28;100240.04;93774;1196;88074;-76
2021/09/16 01:50:17;;;;;;;20.70;16.60;;;;;;;14.72;79.40;100239.66;93784;1196;93753;-76
2021/09/16 01:52:21;;;;;;;18.90;16.20;;;;;;;14.72;79.54;100236.95;93818;1196;80996;-77
2021/09/16 01:54:28;;;;;;;20.70;16.30;;;;;;;14.71;79.63;100233.01;93769;1196;82199;-64
2021/09/16 01:56:33;;;;;;;18.60;15.80;;;;;;;14.73;79.74;100229.77;93762;1196;98945;-63
2021/09/16 01:58:37;;;;;;;18.90;16.90;;;;;;;14.72;79.81;100231.41;93753;1196;87326;-63
2021/09/16 02:00:41;;;;;;;21.70;17.30;;;;;;;14.70;79.85;100232.56;93788;1180;92762;-63
2021/09/16 02:02:46;;;;;;;19.10;16.30;;;;;;;14.67;79.96;100236.21;93818;1196;80595;-62
2021/09/16 02:04:53;;;;;;;20.40;15.60;;;;;;;14.66;80.01;100231.45;93752;1196;82228;-63
2021/09/16 02:06:57;;;;;;;19.10;15.20;;;;;;;14.65;80.08;100234.65;93787;1196;98874;-62
2021/09/16 02:09:02;;;;;;;19.20;15.30;;;;;;;14.64;80.20;100231.59;93801;1196;87970;-62
2021/09/16 02:11:06;;;;;;;19.60;15.50;;;;;;;14.63;80.31;100230.45;93767;1196;94099;-62
2021/09/16 02:13:11;;;;;;;19.10;16.40;;;;;;;14.65;80.37;100230.51;93763;1196;78239;-62
2021/09/16 02:15:15;;;;;;;19.70;16.00;;;;;;;14.66;80.33;100224.17;93791;1196;82109;-63
2021/09/16 02:17:19;;;;;;;17.80;15.90;;;;;;;14.65;80.29;100224.15;93800;1196;98434;-62
2021/09/16 02:19:26;;;;;;;18.40;15.40;;;;;;;14.70;80.32;100222.39;93857;1196;87305;-75
2021/09/16 02:21:31;;;;;;;22.50;16.00;;;;;;;14.77;80.36;100218.61;93792;1196;95644;-74
2021/09/16 02:23:36;;;;;;;18.90;15.80;;;;;;;14.80;80.30;100218.65;93821;1196;79020;-76
2021/09/16 02:25:40;;;;;;;18.70;16.50;;;;;;;14.76;80.25;100212.80;93797;1196;80713;-74
2021/09/16 02:27:44;;;;;;;19.10;16.60;;;;;;;14.73;80.25;100215.21;93807;1196;98645;-75
2021/09/16 02:29:48;;;;;;;18.70;15.80;;;;;;;14.73;80.21;100212.88;93787;1196;87084;-62
2021/09/16 02:31:52;;;;;;;18.40;16.30;;;;;;;14.70;80.33;100212.02;93799;1196;93431;-63
2021/09/16 02:33:59;;;;;;;17.80;15.60;;;;;;;14.68;80.42;100206.85;93797;1196;79932;-77
2021/09/16 02:36:04;;;;;;;19.80;15.30;;;;;;;14.64;80.46;100197.80;93827;1196;82195;-75
2021/09/16 02:38:09;;;;;;;18.00;14.90;;;;;;;14.63;80.45;100194.54;93779;1196;98792;-76
2021/09/16 02:40:14;;;;;;;19.00;15.30;;;;;;;14.67;80.47;100195.67;93823;1196;87339;-78
2021/09/16 02:42:19;;;;;;;19.30;16.00;;;;;;;14.69;80.42;100194.09;93815;1196;93421;-79
2021/09/16 02:44:23;;;;;;;17.80;15.50;;;;;;;14.73;80.53;100189.23;93756;1189;78107;-77
2021/09/16 02:46:27;;;;;;;18.40;15.40;;;;;;;14.76;80.38;100190.84;93765;1196;82574;-75
2021/09/16 02:48:31;;;;;;;19.40;15.80;;;;;;;14.78;80.36;100188.70;93778;1196;97166;-62
2021/09/16 02:50:36;;;;;;;19.50;16.10;;;;;;;14.80;80.36;100186.34;93811;1196;88548;-63
2021/09/16 02:52:40;;;;;;;18.80;15.90;;;;;;;14.84;80.34;100183.89;93812;1196;95247;-63
2021/09/16 02:54:44;;;;;;;20.60;15.20;;;;;;;14.86;80.31;100179.84;93789;1196;79028;-62
2021/09/16 02:56:49;;;;;;;19.60;16.00;;;;;;;14.89;80.31;100180.83;93828;1196;81767;-64
2021/09/16 02:58:56;;;;;;;21.50;16.00;;;;;;;14.90;80.26;100178.23;93663;1196;99317;-63
2021/09/16 03:01:03;;;;;;;19.10;15.40;;;;;;;14.93;80.24;100185.10;93706;1196;88198;-62
2021/09/16 03:03:10;;;;;;;21.10;16.30;;;;;;;14.97;80.17;100181.13;93667;1196;94200;-63
2021/09/16 03:05:15;;;;;;;17.80;14.80;;;;;;;14.97;80.20;100180.41;93812;1196;78367;-63
2021/09/16 03:07:19;;;;;;;17.40;15.10;;;;;;;14.94;80.23;100177.52;93813;1196;81664;-63
2021/09/16 03:09:23;;;;;;;19.90;15.80;;;;;;;14.94;80.22;100175.98;93800;1196;99248;-75
2021/09/16 03:11:27;;;;;;;21.80;15.20;;;;;;;14.96;80.21;100178.22;93808;1196;86545;-76
2021/09/16 03:13:35;;;;;;;18.80;15.10;;;;;;;14.97;80.23;100177.23;93810;1196;94188;-61
2021/09/16 03:15:42;;;;;;;19.00;16.00;;;;;;;15.00;80.31;100175.45;93771;1189;79712;-62
2021/09/16 03:17:46;;;;;;;20.00;16.30;;;;;;;15.04;80.21;100175.88;93840;1196;81640;-62
2021/09/16 03:19:50;;;;;;;20.20;15.40;;;;;;;15.07;80.14;100169.94;93808;1196;97791;-63
2021/09/16 03:21:54;;;;;;;20.70;16.00;;;;;;;15.11;80.13;100170.83;93805;1196;88190;-61
2021/09/16 03:23:58;;;;;;;18.90;15.50;;;;;;;15.16;80.14;100172.16;93773;1196;94123;-76
2021/09/16 03:26:03;;;;;;;19.50;15.70;;;;;;;15.16;80.03;100170.11;93775;1196;79578;-75
2021/09/16 03:28:07;;;;;;;22.00;16.70;;;;;;;15.19;80.02;100172.54;93787;1196;80979;-74
2021/09/16 03:30:14;;;;;;;18.60;16.10;;;;;;;15.21;79.96;100167.58;93781;1196;98937;-76
2021/09/16 03:32:21;;;;;;;19.60;15.70;;;;;;;15.21;79.88;100164.53;93802;1196;86771;-75
2021/09/16 03:34:25;;;;;;;21.00;16.10;;;;;;;15.19;79.90;100167.64;93769;1196;93691;-74
2021/09/16 03:36:29;;;;;;;20.60;17.40;;;;;;;15.19;79.88;100164.77;93816;1196;79780;-75
2021/09/16 03:38:34;;;;;;;21.40;17.10;;;;;;;15.22;79.89;100163.98;93843;1196;80374;-63
2021/09/16 03:40:38;;;;;;;21.20;17.20;;;;;;;15.24;79.86;100162.40;93817;1196;97659;-62
2021/09/16 03:42:42;;;;;;;20.70;17.20;;;;;;;15.25;79.84;100159.13;93818;1196;86297;-63
2021/09/16 03:44:46;;;;;;;21.70;17.90;;;;;;;15.30;79.83;100159.45;93653;1196;93611;-75
2021/09/16 03:46:53;;;;;;;22.40;17.30;;;;;;;15.34;79.83;100155.42;93834;1196;77896;-74
2021/09/16 03:48:57;;;;;;;20.90;18.40;;;;;;;15.36;79.87;100151.45;93855;1196;79508;-75
2021/09/16 03:51:04;;;;;;;22.80;18.20;;;;;;;15.39;79.73;100146.09;93814;1196;99336;-75
2021/09/16 03:53:09;;;;;;;19.30;17.10;;;;;;;15.39;79.65;100145.56;93855;1196;87742;-77
2021/09/16 03:55:13;;;;;;;21.20;18.00;;;;;;;15.42;79.60;100147.22;93851;1196;95294;-62
2021/09/16 03:57:17;;;;;;;23.00;18.50;;;;;;;15.43;79.61;100146.16;93817;1196;79736;-62
2021/09/16 03:59:21;;;;;;;29.20;20.20;;;;;;;15.43;79.57;100142.80;93827;1196;80856;-63
2021/09/16 04:01:25;;;;;;;23.70;19.50;;;;;;;15.47;79.47;100140.52;93816;1196;98314;-62
2021/09/16 04:03:29;;;;;;;23.20;17.80;;;;;;;15.49;79.46;100142.69;93817;1196;87491;-62
2021/09/16 04:05:34;;;;;;;20.50;17.50;;;;;;;15.51;79.39;100141.66;93842;1196;94328;-63
2021/09/16 04:07:39;;;;;;;20.90;18.60;;;;;;;15.53;79.36;100142.73;93821;1196;79794;-63
2021/09/16 04:09:43;;;;;;;22.70;18.60;;;;;;;15.56;79.36;100140.98;93846;1196;80521;-63
2021/09/16 04:11:48;;;;;;;21.00;18.80;;;;;;;15.58;79.34;100139.85;93816;1196;98057;-63
2021/09/16 04:13:52;;;;;;;22.50;18.40;;;;;;;15.62;79.16;100139.52;93812;1196;88138;-63
2021/09/16 04:15:56;;;;;;;20.90;18.60;;;;;;;15.63;79.15;100138.30;93800;1196;94038;-63
2021/09/16 04:18:00;;;;;;;20.70;17.20;;;;;;;15.64;79.04;100141.28;93838;1196;77716;-62
2021/09/16 04:20:07;;;;;;;23.00;19.30;;;;;;;15.67;79.10;100141.63;93798;1196;81196;-62
2021/09/16 04:22:11;;;;;;;23.20;18.70;;;;;;;15.67;78.98;100142.72;93733;1196;96909;-62
2021/09/16 04:24:16;;;;;;;22.50;18.10;;;;;;;15.67;78.96;100142.21;93844;1196;86444;-63
2021/09/16 04:26:23;;;;;;;23.20;18.00;;;;;;;15.65;78.88;100142.02;93662;1196;94487;-63
2021/09/16 04:28:27;;;;;;;23.00;18.10;;;;;;;15.67;78.86;100142.94;93826;1196;78464;-63
2021/09/16 04:30:31;;;;;;;25.80;18.60;;;;;;;15.69;78.81;100137.92;93861;1188;82210;-62
2021/09/16 04:32:37;;;;;;;22.00;18.40;;;;;;;15.67;78.79;100140.12;93852;1195;98917;-62
2021/09/16 04:34:41;;;;;;;21.70;17.40;;;;;;;15.67;78.79;100137.23;93833;1196;87399;-76
2021/09/16 04:36:45;;;;;;;20.00;16.60;;;;;;;15.66;78.78;100137.78;93822;1181;94801;-76
2021/09/16 04:38:53;;;;;;;21.50;17.50;;;;;;;15.67;78.76;100138.02;93798;1196;78033;-63
2021/09/16 04:40:57;;;;;;;20.30;17.50;;;;;;;15.69;78.78;100130.79;93829;1196;81362;-62
2021/09/16 04:43:01;;;;;;;22.00;18.20;;;;;;;15.69;78.75;100135.47;93836;1196;99144;-62
2021/09/16 04:45:08;;;;;;;22.10;17.10;;;;;;;15.70;78.73;100132.57;93800;1196;88348;-74
2021/09/16 04:47:12;;;;;;;20.70;16.20;;;;;;;15.72;78.67;100134.73;93826;1196;94276;-77
2021/09/16 04:49:16;;;;;;;19.70;17.30;;;;;;;15.71;78.69;100135.59;93791;1196;78544;-76
2021/09/16 04:51:20;;;;;;;20.30;16.20;;;;;;;15.72;78.67;100138.09;93852;1196;80656;-76
2021/09/16 04:53:25;;;;;;;22.00;16.80;;;;;;;15.75;78.66;100137.63;93853;1196;98854;-62
2021/09/16 04:55:29;;;;;;;21.60;17.00;;;;;;;15.76;78.65;100138.23;93814;1196;88011;-62
2021/09/16 04:57:33;;;;;;;20.70;17.00;;;;;;;15.76;78.60;100141.95;93834;1196;93842;-63
2021/09/16 04:59:38;;;;;;;19.50;16.80;;;;;;;15.77;78.63;100138.60;93834;1196;78270;-77
2021/09/16 05:01:42;;;;;;;20.70;17.10;;;;;;;15.79;78.64;100136.69;93865;1196;81825;-77
2021/09/16 05:03:46;;;;;;;21.30;17.60;;;;;;;15.82;78.61;100137.37;93809;1196;98906;-77
2021/09/16 05:05:50;;;;;;;20.10;16.50;;;;;;;15.84;78.61;100133.57;93847;1196;86867;-77
2021/09/16 05:07:57;;;;;;;20.40;15.70;;;;;;;15.85;78.67;100134.67;93839;1196;94316;-76
2021/09/16 05:10:02;;;;;;;20.90;17.20;;;;;;;15.89;78.69;100134.80;93826;1196;79868;-62
2021/09/16 05:12:08;;;;;;;19.80;17.40;;;;;;;15.93;78.76;100135.88;93869;1196;80878;-62
2021/09/16 05:14:12;;;;;;;22.20;17.50;;;;;;;15.95;78.70;100141.06;93895;1196;98520;-76
2021/09/16 05:16:17;;;;;;;20.90;17.60;;;;;;;15.96;78.74;100135.25;93826;1196;88174;-76
2021/09/16 05:18:21;;;;;;;21.00;16.10;;;;;;;15.98;78.79;100134.11;93887;1196;94212;-74
2021/09/16 05:20:28;;;;;;;20.00;17.70;;;;;;;16.03;78.74;100133.32;93821;1196;79006;-75
2021/09/16 05:22:34;;;;;;;22.90;17.60;;;;;;;16.05;78.77;100127.48;93860;1196;80522;-76
2021/09/16 05:24:41;;;;;;;20.90;17.70;;;;;;;16.06;78.68;100125.44;93839;1196;98371;-61
2021/09/16 05:26:46;;;;;;;20.50;17.50;;;;;;;16.06;78.76;100125.06;93822;1196;85562;-61
2021/09/16 05:28:50;;;;;;;20.60;17.20;;;;;;;16.08;78.79;100124.02;93856;1196;94014;-63
2021/09/16 05:30:54;;;;;;;25.00;18.00;;;;;;;16.10;78.84;100123.44;93806;1196;78446;-63
2021/09/16 05:32:58;;;;;;;23.60;17.20;;;;;;;16.13;78.88;100124.28;93890;1196;80525;-62
2021/09/16 05:35:03;;;;;;;20.00;17.50;;;;;;;16.19;78.88;100125.63;93822;1196;97711;-78
2021/09/16 05:37:08;;;;;;;22.70;17.50;;;;;;;16.21;78.92;100127.91;93852;1196;85985;-77
2021/09/16 05:39:12;;;;;;;20.20;17.30;;;;;;;16.24;78.96;100131.16;93824;1196;93279;-61
2021/09/16 05:41:16;;;;;;;19.70;17.00;;;;;;;16.24;79.04;100131.27;93841;1196;79918;-61
2021/09/16 05:43:21;;;;;;;22.00;18.20;;;;;;;16.30;78.97;100128.42;93875;1196;81595;-64
2021/09/16 05:45:25;;;;;;;23.60;18.00;;;;;;;16.30;78.95;100124.39;93890;1196;98009;-62
2021/09/16 05:47:32;;;;;;;23.70;19.30;;;;;;;16.34;78.89;100124.67;93868;1196;88091;-61
2021/09/16 05:49:36;;;;;;;19.20;17.10;;;;;;;16.35;78.83;100120.71;93848;1196;93594;-78
2021/09/16 05:51:41;;;;;;;20.40;17.30;;;;;;;16.37;78.72;100117.21;93847;1196;80063;-77
2021/09/16 05:53:45;;;;;;;20.50;18.30;;;;;;;16.35;78.80;100114.54;93871;1196;80761;-61
2021/09/16 05:55:53;;;;;;;20.50;17.70;;;;;;;16.33;78.85;100110.67;93854;1196;98017;-61
2021/09/16 05:58:03;;;;;;;21.00;18.60;;;;;;;16.31;78.92;100101.85;93908;1196;87896;-60
2021/09/16 06:00:16;;;;;;;21.20;18.30;;;;;;;16.29;79.04;100097.77;93761;1196;92996;-60
2021/09/16 06:02:20;;;;;;;22.50;18.10;;;;;;;16.30;79.05;100090.64;93887;1196;81006;-62
2021/09/16 06:04:25;;;;;;;20.90;18.10;;;;;;;16.32;79.16;100087.98;93825;1196;80803;-62
2021/09/16 06:06:29;;;;;;;23.10;18.60;;;;;;;16.34;79.24;100082.08;93878;1196;97738;-63
2021/09/16 06:08:33;;;;;;;21.30;18.10;;;;;;;16.32;79.29;100075.88;93795;1196;87263;-75
2021/09/16 06:10:41;;;;;;;21.70;18.30;;;;;;;16.31;79.33;100076.06;93820;1196;94186;-74
2021/09/16 06:12:45;;;;;;;25.30;18.80;;;;;;;16.32;79.35;100069.59;93859;1196;81940;-76
2021/09/16 06:14:51;;;;;;;22.90;18.10;;;;;;;16.34;79.41;100067.85;93857;1196;82974;-62
2021/09/16 06:16:58;;;;;;;22.50;18.70;;;;;;;16.39;79.37;100065.58;93877;1196;97881;-62
2021/09/16 06:19:06;;;;;;;21.00;18.60;;;;;;;16.44;79.33;100067.38;93886;1196;87089;-62
2021/09/16 06:21:10;;;;;;;24.90;19.90;;;;;;;16.47;79.34;100071.02;93851;1196;92895;-62
2021/09/16 06:23:19;;;;;;;23.10;18.70;;;;;;;16.49;79.34;100074.23;93808;1196;80662;-62
2021/09/16 06:25:28;;;;;;;24.00;18.70;;;;;;;16.52;79.36;100075.52;93854;1196;82777;-76
2021/09/16 06:27:32;;;;;;;22.10;18.10;;;;;;;16.55;79.38;100082.12;93830;1196;98464;-79
2021/09/16 06:29:36;;;;;;;22.20;18.60;;;;;;;16.56;79.37;100085.66;93820;1196;87339;-79
2021/09/16 06:31:44;;;;;;;24.60;18.50;;;;;;;16.64;79.39;100089.89;93853;1196;94175;-78
2021/09/16 06:33:49;;;;;;;23.20;20.30;;;;;;;16.66;79.35;100094.69;93868;1196;79985;-62
2021/09/16 06:35:53;;;;;;;23.80;17.60;;;;;;;16.64;79.52;100097.70;93890;1196;82216;-62
2021/09/16 06:37:58;;;;;;;24.20;18.20;;;;;;;16.67;79.35;100101.41;93856;1196;98703;-62
2021/09/16 06:40:02;;;;;;;24.80;18.60;;;;;;;16.68;79.28;100100.95;93848;1196;87531;-63
2021/09/16 06:42:07;;;;;;;21.80;17.90;;;;;;;16.64;79.32;100102.93;93941;1196;94751;-61
2021/09/16 06:44:12;;;;;;;22.30;19.10;;;;;;;16.61;79.26;100092.21;93875;1196;78862;-62
2021/09/16 06:46:16;;;;;;;23.40;18.70;;;;;;;16.59;79.28;100092.76;93851;1196;80698;-61
2021/09/16 06:48:20;;;;;;;24.50;18.90;;;;;;;16.61;79.26;100100.44;93814;1196;98310;-66
2021/09/16 06:50:25;;;;;;;23.70;18.20;;;;;;;16.59;79.27;100101.77;93844;1196;89013;-62
2021/09/16 06:52:30;;;;;;;21.00;18.70;;;;;;;16.56;79.29;100114.40;93885;1195;93247;-62
2021/09/16 06:54:34;;;;;;;21.70;19.00;;;;;;;16.54;79.38;100123.08;93866;1196;79121;-76
2021/09/16 06:56:38;;;;;;;24.20;19.90;;;;;;;16.52;79.41;100121.54;93872;1196;81556;-76
2021/09/16 06:58:43;;;;;;;23.00;19.10;;;;;;;16.48;79.53;100126.66;93863;1196;98724;-62
2021/09/16 07:00:47;;;;;;;23.50;18.30;;;;;;;16.44;79.69;100119.27;93910;1196;87736;-62
2021/09/16 07:02:51;;;;;;;22.00;19.60;;;;;;;16.45;79.65;100109.14;93845;1196;94094;-63
2021/09/16 07:04:59;;;;;;;23.70;19.20;;;;;;;16.48;79.67;100101.63;93923;1196;78126;-62
2021/09/16 07:07:04;;;;;;;22.60;20.20;;;;;;;16.43;79.64;100105.94;93859;1196;81292;-62
2021/09/16 07:09:10;;;;;;;23.40;19.60;;;;;;;16.46;79.66;100122.29;93883;1196;98101;-74
2021/09/16 07:11:15;;;;;;;22.30;19.40;;;;;;;16.45;79.77;100128.77;93911;1196;86651;-75
2021/09/16 07:13:22;;;;;;;22.40;18.50;;;;;;;16.44;79.83;100132.19;93872;1196;94526;-70
2021/09/16 07:15:27;;;;;;;26.00;20.20;;;;;;;16.39;79.92;100119.98;93874;1196;78630;-77
2021/09/16 07:17:32;;;;;;;26.30;20.30;;;;;;;16.38;79.99;100113.88;93927;1196;81629;-74
2021/09/16 07:19:36;;;;;;;23.30;19.70;;;;;;;16.37;80.15;100111.66;93895;1196;97244;-63
2021/09/16 07:21:44;;;;;;;25.30;19.40;;;;;;;16.38;80.16;100101.20;93926;1196;88057;-64
2021/09/16 07:23:48;;;;;;;25.30;19.30;;;;;;;16.41;80.08;100091.21;93842;1196;94546;-63
2021/09/16 07:25:52;;;;;;;22.00;19.60;;;;;;;16.45;80.12;100084.69;93875;1196;80369;-62
2021/09/16 07:27:57;;;;;;;22.50;19.90;;;;;;;16.47;80.22;100076.73;93890;1196;79931;-63
2021/09/16 07:30:02;;;;;;;24.60;20.80;;;;;;;16.48;80.32;100075.14;93843;1196;99216;-63
2021/09/16 07:32:08;;;;;;;26.40;21.00;;;;;;;16.52;80.26;100080.86;93917;1196;86949;-63
2021/09/16 07:34:14;;;;;;;21.90;19.50;;;;;;;16.56;80.24;100083.37;93899;1196;93660;-75
2021/09/16 07:36:18;;;;;;;25.00;19.50;;;;;;;16.61;80.24;100085.41;93881;1196;79611;-74
2021/09/16 07:38:26;;;;;;;26.00;20.10;;;;;;;16.66;80.28;100088.90;93918;1196;80814;-74
2021/09/16 07:40:34;;;;;;;23.90;19.50;;;;;;;16.75;80.32;100088.68;93752;1196;98949;-75
2021/09/16 07:42:38;;;;;;;25.60;20.60;;;;;;;16.82;80.34;100093.39;93795;1196;85831;-75
2021/09/16 07:44:43;;;;;;;23.60;21.00;;;;;;;16.81;80.31;100089.20;93659;1196;94593;-63
2021/09/16 07:46:48;;;;;;;24.60;20.40;;;;;;;16.89;80.33;100085.29;93698;1196;82382;-63
2021/09/16 07:48:52;;;;;;;27.70;20.70;;;;;;;17.04;80.29;100081.66;93714;1196;80910;-63
2021/09/16 07:50:57;;;;;;;22.50;19.80;;;;;;;17.18;80.29;100082.13;93736;1196;98153;-64
2021/09/16 07:53:05;;;;;;;24.20;20.00;;;;;;;17.30;80.23;100086.81;93700;1196;87479;-63
2021/09/16 07:55:11;;;;;;;23.80;20.90;;;;;;;17.43;80.15;100087.16;93657;1196;95024;-62
2021/09/16 07:57:15;;;;;;;24.30;21.70;;;;;;;17.58;80.24;100085.40;93717;1196;78123;-62
2021/09/16 07:59:20;;;;;;;24.30;20.50;;;;;;;17.81;80.07;100083.63;93685;1196;81331;-64
2021/09/16 08:01:24;;;;;;;25.00;20.20;;;;;;;17.97;79.93;100078.08;93674;1196;98984;-62
2021/09/16 08:03:29;;;;;;;26.60;20.70;;;;;;;18.12;79.70;100081.80;93692;1196;87983;-75
2021/09/16 08:05:33;;;;;;;22.90;20.10;;;;;;;18.28;79.57;100080.29;93662;1196;93153;-73
2021/09/16 08:07:37;;;;;;;23.70;21.10;;;;;;;18.49;79.53;100079.55;93698;1196;79934;-74
2021/09/16 08:09:45;;;;;;;25.00;20.80;;;;;;;18.69;79.39;100078.15;93725;1197;81389;-62
2021/09/16 08:11:49;;;;;;;23.50;20.10;;;;;;;18.83;78.90;100080.89;93888;1189;98440;-63
2021/09/16 08:13:54;;;;;;;22.90;20.30;;;;;;;18.94;78.51;100076.34;93938;1196;87751;-63
2021/09/16 08:15:59;;;;;;;25.70;20.80;;;;;;;19.08;78.20;100080.98;93854;1196;94090;-63
2021/09/16 08:18:04;;;;;;;25.80;19.80;;;;;;;19.16;77.76;100081.47;93857;1196;80006;-63
2021/09/16 08:20:12;;;;;;;22.30;19.90;;;;;;;19.25;77.73;100085.86;93866;1196;81467;-63
2021/09/16 08:22:16;;;;;;;23.50;20.80;;;;;;;19.41;77.70;100083.48;93859;1196;98946;-63
2021/09/16 08:24:21;;;;;;;23.10;20.80;;;;;;;19.55;77.35;100086.63;93898;1196;88377;-77
2021/09/16 08:26:25;;;;;;;23.40;20.20;;;;;;;19.78;77.40;100088.48;93890;1196;94055;-77
2021/09/16 08:28:30;;;;;;;24.30;19.80;;;;;;;20.03;77.08;100087.33;93891;1196;81152;-62
2021/09/16 08:30:34;;;;;;;22.30;19.70;;;;;;;20.25;76.62;100084.39;93918;1196;81333;-63
2021/09/16 08:32:39;;;;;;;23.40;20.90;;;;;;;20.45;76.29;100086.06;93932;1196;98435;-62
2021/09/16 08:34:44;;;;;;;22.80;20.30;;;;;;;20.53;75.93;100087.49;93949;1195;87582;-62
2021/09/16 08:36:48;;;;;;;22.90;20.50;;;;;;;20.52;75.53;100088.21;93977;1196;94176;-62
2021/09/16 08:38:53;;;;;;;26.20;21.10;;;;;;;20.49;75.14;100084.67;93930;1196;78117;-76
2021/09/16 08:41:00;;;;;;;23.40;20.90;;;;;;;20.42;74.77;100083.34;93961;1196;82438;-76
2021/09/16 08:43:08;;;;;;;23.50;19.90;;;;;;;20.35;74.76;100083.77;93955;1196;98792;-76
2021/09/16 08:45:16;;;;;;;24.20;21.70;;;;;;;20.31;74.61;100076.71;93969;1196;88757;-76
2021/09/16 08:47:21;;;;;;;23.20;20.70;;;;;;;20.26;74.56;100075.69;93954;1196;94168;-77
2021/09/16 08:49:25;;;;;;;24.30;21.60;;;;;;;20.23;74.55;100075.89;93902;1195;78708;-62
2021/09/16 08:51:30;;;;;;;24.80;21.50;;;;;;;20.14;74.61;100076.58;93963;1196;81501;-63
2021/09/16 08:53:35;;;;;;;22.80;20.40;;;;;;;20.16;74.40;100075.39;93904;1196;99790;-76
2021/09/16 08:55:39;;;;;;;24.20;20.50;;;;;;;20.07;74.45;100076.95;93918;1196;87222;-76
2021/09/16 08:57:47;;;;;;;23.80;20.70;;;;;;;20.13;74.52;100073.50;93957;1196;92951;-76
2021/09/16 08:59:52;;;;;;;23.80;21.30;;;;;;;20.15;74.33;100070.48;93930;1196;78436;-62
2021/09/16 09:01:56;;;;;;;24.20;20.70;;;;;;;20.18;74.31;100067.77;93983;1196;82701;-61
2021/09/16 09:04:04;;;;;;;22.60;20.10;;;;;;;20.26;74.28;100062.73;93937;1196;98448;-75
2021/09/16 09:06:28;;;;;;;24.40;21.10;;;;;;;20.35;74.34;100066.49;93994;1196;88513;-76
2021/09/16 09:08:33;;;;;;;23.70;20.30;;;;;;;20.42;74.11;100061.73;94010;1196;93678;-76
2021/09/16 09:10:44;;;;;;;25.40;21.10;;;;;;;20.40;73.87;100058.20;93919;1196;79793;-76
2021/09/16 09:12:48;;;;;;;26.90;21.90;;;;;;;20.48;73.96;100057.93;93992;1196;80334;-76
2021/09/16 09:14:55;;;;;;;24.40;20.90;;;;;;;20.60;73.95;100053.69;93915;1196;98365;-76
2021/09/16 09:17:02;;;;;;;28.20;22.90;;;;;;;20.65;73.75;100053.83;94017;1189;87496;-76
2021/09/16 09:19:15;;;;;;;23.60;20.80;;;;;;;20.58;73.64;100053.19;93915;1196;93926;-62
2021/09/16 09:21:20;;;;;;;27.70;22.00;;;;;;;20.56;73.38;100052.62;93953;1196;78955;-63
2021/09/16 09:23:32;;;;;;;24.70;21.00;;;;;;;20.57;73.48;100052.17;93926;1196;80507;-64
2021/09/16 09:25:37;;;;;;;24.60;22.10;;;;;;;20.59;73.33;100049.79;93976;1196;99275;-63
2021/09/16 09:27:48;;;;;;;24.90;21.60;;;;;;;20.57;73.38;100045.75;93934;1196;87933;-62
2021/09/16 09:30:11;;;;;;;28.80;20.60;;;;;;;20.55;73.23;100040.81;93915;1196;93116;-76